Time;durP1;ratioP1;P1;durP2;ratioP2;P2;SDS_P1;SDS_P2;PMS_P1;PMS_P2;Temp;Humidity;BMP_temperature;BMP_pressure;BME280_temperature;BME280_humidity;BME280_pressure;Samples;Min_cycle;Max_cycle;Signal;HPM_P1;HPM_P2
2023/03/23 00:01:03;;;;;;;5.97;4.03;;;;;;;;;;5049712;28;20473;-70
2023/03/23 00:03:31;;;;;;;7.40;4.50;;;;;;;;;;5048871;28;20995;-69
2023/03/23 00:06:02;;;;;;;6.30;5.50;;;;;;;;;;5050420;28;20425;-69
2023/03/23 00:08:27;;;;;;;7.40;5.03;;;;;;;;;;5052883;28;20450;-70
2023/03/23 00:10:56;;;;;;;10.43;6.20;;;;;;;;;;5050543;28;20473;-69
2023/03/23 00:13:21;;;;;;;6.50;5.80;;;;;;;;;;5046897;28;20239;-69
2023/03/23 00:15:48;;;;;;;9.20;6.37;;;;;;;;;;5038636;28;20481;-70
2023/03/23 00:18:20;;;;;;;6.77;6.10;;;;;;;;;;5050737;28;20562;-70
2023/03/23 00:20:48;;;;;;;9.27;7.10;;;;;;;;;;5053884;28;20437;-70
2023/03/23 00:23:18;;;;;;;10.00;6.97;;;;;;;;;;5060130;28;20457;-70
2023/03/23 00:25:44;;;;;;;10.53;6.50;;;;;;;;;;5055740;28;20517;-69
2023/03/23 00:28:12;;;;;;;7.43;5.83;;;;;;;;;;5053634;28;20472;-70
2023/03/23 00:30:38;;;;;;;7.37;6.40;;;;;;;;;;5055047;28;20422;-70
2023/03/23 00:33:04;;;;;;;13.20;8.00;;;;;;;;;;5052516;28;20476;-69
2023/03/23 00:35:30;;;;;;;10.73;7.70;;;;;;;;;;5052792;28;20902;-69
2023/03/23 00:37:56;;;;;;;9.63;7.33;;;;;;;;;;5058499;28;20179;-69
2023/03/23 00:40:21;;;;;;;7.63;6.70;;;;;;;;;;5057482;28;20480;-69
2023/03/23 00:42:48;;;;;;;11.03;7.93;;;;;;;;;;5053092;28;20471;-70
2023/03/23 00:45:14;;;;;;;7.83;7.03;;;;;;;;;;5058169;28;20187;-69
2023/03/23 00:47:41;;;;;;;11.07;7.13;;;;;;;;;;5057202;28;20428;-69
2023/03/23 00:50:07;;;;;;;10.47;7.50;;;;;;;;;;5058677;28;20519;-69
2023/03/23 00:52:32;;;;;;;9.70;7.20;;;;;;;;;;5060309;28;20470;-69
2023/03/23 00:54:58;;;;;;;8.47;7.10;;;;;;;;;;5059371;28;20440;-70
2023/03/23 00:57:24;;;;;;;8.80;7.50;;;;;;;;;;5063541;28;20179;-69
2023/03/23 00:59:50;;;;;;;11.97;7.13;;;;;;;;;;5058640;28;20209;-70
2023/03/23 01:02:16;;;;;;;8.23;7.30;;;;;;;;;;5056741;28;20452;-69
2023/03/23 01:04:44;;;;;;;10.13;8.07;;;;;;;;;;5060036;28;20835;-70
2023/03/23 01:07:12;;;;;;;9.77;7.27;;;;;;;;;;5060980;28;20421;-70
2023/03/23 01:09:39;;;;;;;11.07;6.73;;;;;;;;;;5060258;28;20492;-70
2023/03/23 01:12:05;;;;;;;9.47;7.70;;;;;;;;;;5056448;28;20465;-70
2023/03/23 01:14:31;;;;;;;9.30;7.00;;;;;;;;;;5053781;28;20989;-70
2023/03/23 01:16:56;;;;;;;9.80;6.70;;;;;;;;;;5056564;28;20236;-69
2023/03/23 01:19:22;;;;;;;8.47;7.50;;;;;;;;;;5056825;28;20182;-69
2023/03/23 01:21:47;;;;;;;12.60;7.10;;;;;;;;;;5054448;28;20218;-69
2023/03/23 01:24:12;;;;;;;10.43;6.90;;;;;;;;;;5048696;28;20178;-70
2023/03/23 01:26:38;;;;;;;12.70;7.30;;;;;;;;;;5049055;28;20530;-69
2023/03/23 01:29:03;;;;;;;13.90;7.43;;;;;;;;;;5052508;28;20202;-69
2023/03/23 01:31:29;;;;;;;10.00;7.30;;;;;;;;;;5051032;28;20211;-70
2023/03/23 01:33:55;;;;;;;11.23;7.27;;;;;;;;;;5048441;28;20623;-70
2023/03/23 01:36:32;;;;;;;11.27;6.17;;;;;;;;;;5053013;28;20194;-69
2023/03/23 01:38:58;;;;;;;5.23;4.50;;;;;;;;;;5048660;28;20513;-69
2023/03/23 01:41:23;;;;;;;6.87;4.63;;;;;;;;;;5052674;28;20533;-70
2023/03/23 01:44:03;;;;;;;6.17;3.67;;;;;;;;;;5052444;28;20217;-69
2023/03/23 01:46:30;;;;;;;8.80;3.40;;;;;;;;;;5052012;28;20539;-69
2023/03/23 01:48:57;;;;;;;5.57;3.00;;;;;;;;;;5050814;28;20513;-69
2023/03/23 01:51:24;;;;;;;4.50;3.40;;;;;;;;;;5049756;28;20541;-70
2023/03/23 01:53:55;;;;;;;4.73;3.13;;;;;;;;;;5055524;28;20434;-70
2023/03/23 01:56:25;;;;;;;9.00;4.43;;;;;;;;;;5050633;28;20443;-70
2023/03/23 01:58:51;;;;;;;10.20;4.43;;;;;;;;;;5052765;28;20490;-70
2023/03/23 02:01:16;;;;;;;7.00;4.83;;;;;;;;;;5047919;28;20457;-69
2023/03/23 02:03:44;;;;;;;7.67;3.57;;;;;;;;;;5054431;28;20422;-70
2023/03/23 02:06:10;;;;;;;5.10;2.90;;;;;;;;;;5054150;28;20627;-69
2023/03/23 02:08:36;;;;;;;4.80;2.90;;;;;;;;;;5049867;28;20429;-69
2023/03/23 02:11:01;;;;;;;3.43;2.30;;;;;;;;;;5052085;28;20199;-70
2023/03/23 02:13:27;;;;;;;5.33;1.63;;;;;;;;;;5054740;28;20203;-70
2023/03/23 02:16:13;;;;;;;2.73;1.53;;;;;;;;;;5051049;28;20863;-69
2023/03/23 02:18:50;;;;;;;3.87;2.63;;;;;;;;;;5049370;28;20417;-70
2023/03/23 02:21:21;;;;;;;4.53;2.20;;;;;;;;;;5051046;28;20445;-70
2023/03/23 02:23:50;;;;;;;2.43;1.90;;;;;;;;;;5047664;28;20563;-70
2023/03/23 02:26:15;;;;;;;4.20;2.60;;;;;;;;;;5046061;28;20427;-70
2023/03/23 02:28:46;;;;;;;4.97;3.10;;;;;;;;;;5052609;28;20472;-70
2023/03/23 02:31:30;;;;;;;6.57;3.33;;;;;;;;;;5053083;28;20196;-70
2023/03/23 02:33:55;;;;;;;6.47;3.53;;;;;;;;;;5058368;28;20896;-70
2023/03/23 02:36:25;;;;;;;9.43;4.93;;;;;;;;;;5049756;28;20439;-70
2023/03/23 02:39:05;;;;;;;5.80;4.13;;;;;;;;;;5051031;28;20176;-70
2023/03/23 02:41:34;;;;;;;7.00;4.60;;;;;;;;;;5047363;28;26874;-70
2023/03/23 02:44:02;;;;;;;7.63;4.70;;;;;;;;;;5053883;28;20479;-70
2023/03/23 02:46:28;;;;;;;4.73;4.00;;;;;;;;;;5056184;28;20483;-70
2023/03/23 02:48:55;;;;;;;8.23;4.60;;;;;;;;;;5056912;28;21042;-70
2023/03/23 02:51:22;;;;;;;9.07;4.93;;;;;;;;;;5054183;28;20461;-70
2023/03/23 02:53:50;;;;;;;7.90;4.30;;;;;;;;;;5055269;28;20920;-70
2023/03/23 02:56:16;;;;;;;7.43;3.80;;;;;;;;;;5055371;28;20447;-70
2023/03/23 02:58:41;;;;;;;5.77;3.33;;;;;;;;;;5057399;28;20850;-70
2023/03/23 03:01:15;;;;;;;6.20;3.67;;;;;;;;;;5071373;28;20462;-70
2023/03/23 03:03:40;;;;;;;7.10;4.07;;;;;;;;;;5058342;28;20192;-70
2023/03/23 03:06:06;;;;;;;5.60;2.90;;;;;;;;;;5053311;28;20433;-70
2023/03/23 03:08:40;;;;;;;6.10;4.03;;;;;;;;;;5055535;28;20181;-70
2023/03/23 03:11:10;;;;;;;6.17;3.23;;;;;;;;;;5053701;28;20211;-69
2023/03/23 03:13:55;;;;;;;6.20;2.90;;;;;;;;;;5058171;28;20868;-70
2023/03/23 03:16:41;;;;;;;5.77;3.20;;;;;;;;;;5051442;28;20435;-70
2023/03/23 03:19:06;;;;;;;5.67;2.80;;;;;;;;;;5047000;28;21134;-70
2023/03/23 03:21:35;;;;;;;6.13;3.10;;;;;;;;;;5049094;28;20481;-70
2023/03/23 03:24:02;;;;;;;6.63;3.80;;;;;;;;;;5049047;28;20789;-70
2023/03/23 03:26:30;;;;;;;7.30;3.50;;;;;;;;;;5047821;28;20440;-70
2023/03/23 03:28:56;;;;;;;4.80;2.97;;;;;;;;;;5049936;28;20931;-70
2023/03/23 03:31:23;;;;;;;5.57;3.30;;;;;;;;;;5048770;28;20461;-70
2023/03/23 03:33:49;;;;;;;9.40;3.50;;;;;;;;;;5046514;28;20194;-69
2023/03/23 03:36:15;;;;;;;7.40;3.00;;;;;;;;;;5052515;28;20437;-69
2023/03/23 03:38:45;;;;;;;7.00;2.97;;;;;;;;;;5051790;28;20183;-70
2023/03/23 03:41:10;;;;;;;5.90;3.07;;;;;;;;;;5049755;28;20468;-69
2023/03/23 03:43:36;;;;;;;6.43;3.17;;;;;;;;;;5052170;28;20421;-70
2023/03/23 03:46:01;;;;;;;7.07;3.90;;;;;;;;;;5054301;28;20179;-70
2023/03/23 03:48:26;;;;;;;6.33;3.60;;;;;;;;;;5052231;28;20171;-70
2023/03/23 03:50:51;;;;;;;4.63;2.67;;;;;;;;;;5048189;28;20732;-70
2023/03/23 03:53:17;;;;;;;4.20;2.70;;;;;;;;;;5051665;28;20211;-70
2023/03/23 03:55:45;;;;;;;7.20;3.10;;;;;;;;;;5052562;28;20690;-70
2023/03/23 03:58:10;;;;;;;5.80;2.83;;;;;;;;;;5051912;28;20546;-70
2023/03/23 04:00:35;;;;;;;6.53;3.23;;;;;;;;;;5055959;28;20429;-70
2023/03/23 04:03:00;;;;;;;4.00;2.80;;;;;;;;;;5049554;28;20702;-70
2023/03/23 04:05:28;;;;;;;4.43;2.60;;;;;;;;;;5050310;28;20194;-70
2023/03/23 04:07:54;;;;;;;4.97;2.50;;;;;;;;;;5049337;28;20554;-69
2023/03/23 04:10:21;;;;;;;11.00;2.97;;;;;;;;;;5051564;28;20429;-70
2023/03/23 04:12:46;;;;;;;5.00;3.00;;;;;;;;;;5050740;28;20305;-70
2023/03/23 04:15:11;;;;;;;4.97;2.80;;;;;;;;;;5048210;28;21068;-70
2023/03/23 04:17:37;;;;;;;5.90;3.30;;;;;;;;;;5052015;28;20191;-70
2023/03/23 04:20:12;;;;;;;4.40;2.80;;;;;;;;;;5051788;28;20581;-70
2023/03/23 04:22:38;;;;;;;5.97;2.97;;;;;;;;;;5048558;28;20476;-70
2023/03/23 04:25:06;;;;;;;5.93;3.40;;;;;;;;;;5047728;28;20532;-70
2023/03/23 04:27:33;;;;;;;6.40;3.13;;;;;;;;;;5049544;28;20190;-71
2023/03/23 04:29:58;;;;;;;6.50;3.70;;;;;;;;;;5049225;28;20464;-70
2023/03/23 04:32:28;;;;;;;5.13;3.17;;;;;;;;;;5052132;28;20670;-69
2023/03/23 04:34:54;;;;;;;6.80;3.13;;;;;;;;;;5051367;28;20225;-70
2023/03/23 04:37:19;;;;;;;7.50;3.10;;;;;;;;;;5046401;28;20438;-71
2023/03/23 04:39:45;;;;;;;6.70;3.50;;;;;;;;;;5051564;28;20244;-70
2023/03/23 04:42:11;;;;;;;9.53;4.17;;;;;;;;;;5046001;28;20207;-70
2023/03/23 04:44:36;;;;;;;5.90;3.60;;;;;;;;;;5045499;28;20534;-71
2023/03/23 04:47:02;;;;;;;8.30;4.70;;;;;;;;;;5052182;28;20438;-70
2023/03/23 04:49:29;;;;;;;8.37;4.47;;;;;;;;;;5053341;28;20179;-70
2023/03/23 04:51:56;;;;;;;9.57;4.53;;;;;;;;;;5055889;28;20552;-70
2023/03/23 04:54:21;;;;;;;5.47;4.00;;;;;;;;;;5054363;28;20426;-70
2023/03/23 04:56:46;;;;;;;4.03;1.77;;;;;;;;;;5056437;28;20425;-71
2023/03/23 04:59:13;;;;;;;3.33;2.17;;;;;;;;;;5055446;28;20643;-70
2023/03/23 05:01:38;;;;;;;3.27;1.10;;;;;;;;;;5054783;28;20211;-70
2023/03/23 05:04:04;;;;;;;1.17;0.93;;;;;;;;;;5053541;28;20430;-70
2023/03/23 05:06:29;;;;;;;3.23;1.23;;;;;;;;;;5059756;28;20229;-70
2023/03/23 05:08:54;;;;;;;2.20;1.20;;;;;;;;;;5060482;28;20186;-69
2023/03/23 05:11:20;;;;;;;4.10;1.30;;;;;;;;;;5053823;28;20208;-69
2023/03/23 05:13:45;;;;;;;2.70;1.00;;;;;;;;;;5056377;28;20666;-69
2023/03/23 05:16:10;;;;;;;2.00;0.80;;;;;;;;;;5051800;28;20274;-69
2023/03/23 05:18:36;;;;;;;3.13;1.00;;;;;;;;;;5051593;28;20183;-70
2023/03/23 05:21:02;;;;;;;3.40;1.00;;;;;;;;;;5049210;28;20678;-69
2023/03/23 05:23:27;;;;;;;2.10;1.00;;;;;;;;;;5052628;28;20410;-69
2023/03/23 05:25:56;;;;;;;2.80;1.00;;;;;;;;;;5051147;28;20498;-70
2023/03/23 05:28:22;;;;;;;2.10;1.20;;;;;;;;;;5054313;28;20191;-69
2023/03/23 05:30:47;;;;;;;4.60;1.70;;;;;;;;;;5049426;28;20458;-70
2023/03/23 05:33:13;;;;;;;2.40;1.10;;;;;;;;;;5053566;28;20673;-70
2023/03/23 05:35:38;;;;;;;4.47;1.70;;;;;;;;;;5050963;28;20468;-69
2023/03/23 05:38:04;;;;;;;4.97;1.47;;;;;;;;;;5058630;28;20192;-70
2023/03/23 05:40:29;;;;;;;4.17;1.30;;;;;;;;;;5054238;28;20263;-70
2023/03/23 05:42:57;;;;;;;8.33;1.40;;;;;;;;;;5052699;28;20942;-69
2023/03/23 05:45:22;;;;;;;5.60;1.73;;;;;;;;;;5051887;28;20188;-69
2023/03/23 05:47:48;;;;;;;4.40;1.70;;;;;;;;;;5050062;28;20434;-69
2023/03/23 05:50:13;;;;;;;4.33;1.60;;;;;;;;;;5046135;28;20564;-70
2023/03/23 05:52:39;;;;;;;6.40;2.10;;;;;;;;;;5049806;28;20374;-70
2023/03/23 05:55:04;;;;;;;6.37;2.33;;;;;;;;;;5046694;28;20194;-70
2023/03/23 05:57:30;;;;;;;7.63;2.00;;;;;;;;;;5048754;28;20210;-70
2023/03/23 05:59:55;;;;;;;4.30;2.10;;;;;;;;;;5053650;28;20206;-70
2023/03/23 06:02:23;;;;;;;4.00;2.10;;;;;;;;;;5057383;28;20207;-71
2023/03/23 06:04:48;;;;;;;4.63;2.13;;;;;;;;;;5053482;28;20188;-70
2023/03/23 06:07:14;;;;;;;6.17;2.50;;;;;;;;;;5050210;28;21410;-70
2023/03/23 06:09:40;;;;;;;6.30;2.30;;;;;;;;;;5048045;28;20433;-70
2023/03/23 06:12:05;;;;;;;9.63;3.53;;;;;;;;;;5048885;28;20211;-70
2023/03/23 06:14:31;;;;;;;11.23;2.40;;;;;;;;;;5046872;28;20263;-71
2023/03/23 06:16:56;;;;;;;9.60;3.33;;;;;;;;;;5047219;28;20462;-71
2023/03/23 06:19:22;;;;;;;11.90;2.37;;;;;;;;;;5041625;28;20195;-71
2023/03/23 06:21:48;;;;;;;11.07;2.97;;;;;;;;;;5050735;22;20243;-74
2023/03/23 06:24:16;;;;;;;12.93;3.10;;;;;;;;;;4998585;28;20887;-70
2023/03/23 06:26:43;;;;;;;11.83;3.13;;;;;;;;;;5001567;28;20909;-76
2023/03/23 06:29:12;;;;;;;12.13;2.83;;;;;;;;;;4999443;28;20444;-74
2023/03/23 06:31:42;;;;;;;10.40;2.90;;;;;;;;;;4999381;28;20467;-74
2023/03/23 06:34:08;;;;;;;13.50;5.13;;;;;;;;;;5005644;28;20432;-72
2023/03/23 06:36:34;;;;;;;11.93;3.07;;;;;;;;;;5006731;28;20467;-76
2023/03/23 06:39:00;;;;;;;14.20;3.90;;;;;;;;;;4999724;28;20493;-74
2023/03/23 06:41:26;;;;;;;11.20;4.17;;;;;;;;;;5006849;28;20972;-75
2023/03/23 06:43:54;;;;;;;15.53;3.60;;;;;;;;;;5000870;28;20456;-76
2023/03/23 06:46:20;;;;;;;12.10;3.47;;;;;;;;;;4999104;28;20255;-73
2023/03/23 06:48:49;;;;;;;13.30;3.63;;;;;;;;;;5000291;28;20435;-74
2023/03/23 06:51:14;;;;;;;17.50;4.30;;;;;;;;;;4996720;28;21018;-75
2023/03/23 06:53:42;;;;;;;15.37;3.90;;;;;;;;;;5000682;28;20487;-77
2023/03/23 06:56:08;;;;;;;15.33;3.97;;;;;;;;;;5003775;28;20181;-76
2023/03/23 06:58:33;;;;;;;14.87;3.40;;;;;;;;;;4999366;28;20517;-75
2023/03/23 07:00:58;;;;;;;16.23;3.83;;;;;;;;;;5004424;28;20181;-74
2023/03/23 07:03:25;;;;;;;15.57;3.60;;;;;;;;;;4994536;28;20206;-73
2023/03/23 07:05:50;;;;;;;14.13;3.93;;;;;;;;;;5000655;28;20673;-74
2023/03/23 07:08:16;;;;;;;16.10;3.60;;;;;;;;;;5005087;28;20440;-76
2023/03/23 07:10:41;;;;;;;23.20;5.73;;;;;;;;;;5003451;28;20682;-77
2023/03/23 07:13:10;;;;;;;12.90;3.30;;;;;;;;;;5008157;28;20259;-75
2023/03/23 07:15:35;;;;;;;20.13;3.70;;;;;;;;;;5004649;28;20189;-77
2023/03/23 07:18:01;;;;;;;16.87;3.70;;;;;;;;;;5005368;28;20452;-74
2023/03/23 07:20:26;;;;;;;17.93;3.90;;;;;;;;;;5005924;28;20199;-74
2023/03/23 07:22:55;;;;;;;9.00;2.60;;;;;;;;;;5004023;28;20205;-72
2023/03/23 07:25:20;;;;;;;14.83;4.00;;;;;;;;;;5003801;28;21149;-72
2023/03/23 07:27:55;;;;;;;10.93;2.77;;;;;;;;;;5000154;28;20470;-73
2023/03/23 07:30:23;;;;;;;16.00;3.10;;;;;;;;;;5017587;28;20205;-73
2023/03/23 07:33:00;;;;;;;10.97;2.50;;;;;;;;;;5000803;28;20511;-76
2023/03/23 07:35:28;;;;;;;9.77;2.60;;;;;;;;;;5000217;28;20463;-75
2023/03/23 07:37:57;;;;;;;9.87;2.37;;;;;;;;;;5014741;28;20439;-76
2023/03/23 07:40:28;;;;;;;8.07;2.20;;;;;;;;;;4999836;28;20534;-75
2023/03/23 07:43:02;;;;;;;11.63;2.93;;;;;;;;;;5016236;28;20487;-75
2023/03/23 07:45:28;;;;;;;12.50;2.30;;;;;;;;;;5002395;28;20445;-76
2023/03/23 07:47:57;;;;;;;6.47;2.00;;;;;;;;;;5003633;28;20427;-74
2023/03/23 07:50:29;;;;;;;12.77;2.10;;;;;;;;;;5002192;28;20447;-78
2023/03/23 07:52:55;;;;;;;9.93;1.63;;;;;;;;;;5001835;28;20495;-76
2023/03/23 07:55:21;;;;;;;9.23;2.33;;;;;;;;;;4998808;28;20876;-74
2023/03/23 07:57:53;;;;;;;12.53;2.90;;;;;;;;;;4989659;28;20440;-78
2023/03/23 08:00:25;;;;;;;7.40;1.70;;;;;;;;;;5016534;28;20797;-75
2023/03/23 08:02:55;;;;;;;12.90;2.80;;;;;;;;;;4998667;28;20448;-75
2023/03/23 08:05:21;;;;;;;12.90;3.20;;;;;;;;;;5004759;28;21072;-75
2023/03/23 08:07:51;;;;;;;13.80;2.40;;;;;;;;;;5000223;28;20432;-73
2023/03/23 08:10:17;;;;;;;9.00;2.43;;;;;;;;;;5002268;28;20458;-75
2023/03/23 08:12:43;;;;;;;12.17;2.90;;;;;;;;;;4997517;28;20983;-75
2023/03/23 08:15:12;;;;;;;19.03;4.30;;;;;;;;;;5003560;28;20184;-74
2023/03/23 08:17:37;;;;;;;16.23;3.37;;;;;;;;;;5001195;28;20180;-75
2023/03/23 08:20:10;;;;;;;17.87;4.20;;;;;;;;;;5007773;28;20415;-74
2023/03/23 08:22:36;;;;;;;15.37;3.60;;;;;;;;;;5002488;28;20216;-75
2023/03/23 08:25:03;;;;;;;17.23;3.87;;;;;;;;;;5007734;28;20426;-77
2023/03/23 08:27:32;;;;;;;10.40;2.60;;;;;;;;;;5021606;28;20668;-76
2023/03/23 08:29:57;;;;;;;17.20;3.80;;;;;;;;;;5008141;28;20491;-76
2023/03/23 08:32:26;;;;;;;16.23;3.90;;;;;;;;;;5007241;28;20546;-75
2023/03/23 08:34:51;;;;;;;25.67;4.57;;;;;;;;;;5008994;28;20222;-77
2023/03/23 08:37:17;;;;;;;23.10;4.43;;;;;;;;;;5004784;28;20466;-76
2023/03/23 08:39:43;;;;;;;20.60;3.63;;;;;;;;;;5003709;28;20184;-74
2023/03/23 08:42:09;;;;;;;15.57;3.90;;;;;;;;;;5010705;28;20275;-73
2023/03/23 08:44:36;;;;;;;16.70;4.47;;;;;;;;;;5009030;28;20499;-73
2023/03/23 08:47:03;;;;;;;20.57;5.10;;;;;;;;;;5027109;28;20499;-77
2023/03/23 08:49:29;;;;;;;16.93;4.80;;;;;;;;;;5010011;28;20501;-77
2023/03/23 08:51:54;;;;;;;18.13;4.63;;;;;;;;;;4999768;28;20909;-77
2023/03/23 08:54:20;;;;;;;19.20;5.00;;;;;;;;;;5011842;28;20570;-78
2023/03/23 08:56:46;;;;;;;27.67;4.87;;;;;;;;;;5011184;28;20232;-75
2023/03/23 08:59:11;;;;;;;18.03;4.40;;;;;;;;;;5011514;28;20715;-77
2023/03/23 09:01:37;;;;;;;22.67;5.33;;;;;;;;;;5005913;28;20251;-75
2023/03/23 09:04:02;;;;;;;28.37;5.63;;;;;;;;;;5010034;28;20181;-75
2023/03/23 09:06:27;;;;;;;19.93;4.67;;;;;;;;;;5011749;28;20177;-75
2023/03/23 09:09:21;;;;;;;17.63;4.83;;;;;;;;;;5012996;28;20655;-74
2023/03/23 09:11:46;;;;;;;23.30;5.20;;;;;;;;;;5009923;28;20585;-74
2023/03/23 09:14:17;;;;;;;12.30;4.30;;;;;;;;;;5009450;28;20421;-74
2023/03/23 09:16:51;;;;;;;25.83;5.40;;;;;;;;;;5009364;28;20189;-72
2023/03/23 09:19:29;;;;;;;18.13;4.60;;;;;;;;;;5025132;28;20478;-73
2023/03/23 09:21:58;;;;;;;23.00;4.63;;;;;;;;;;5025871;28;20505;-74
2023/03/23 09:24:55;;;;;;;20.30;4.90;;;;;;;;;;5010073;28;20423;-73
2023/03/23 09:27:21;;;;;;;23.30;5.50;;;;;;;;;;5005588;28;20439;-75
2023/03/23 09:29:52;;;;;;;22.27;6.23;;;;;;;;;;5016336;28;20478;-77
2023/03/23 09:32:28;;;;;;;19.07;5.17;;;;;;;;;;5023198;28;20630;-73
2023/03/23 09:34:56;;;;;;;23.90;5.47;;;;;;;;;;5009410;28;20459;-74
2023/03/23 09:37:52;;;;;;;22.60;5.40;;;;;;;;;;5004722;28;20507;-74
2023/03/23 09:40:27;;;;;;;25.43;4.73;;;;;;;;;;5007125;28;20445;-74
2023/03/23 09:43:18;;;;;;;16.87;4.00;;;;;;;;;;5006933;28;20520;-74
2023/03/23 09:45:52;;;;;;;24.83;5.13;;;;;;;;;;5022656;28;20464;-74
2023/03/23 09:48:38;;;;;;;34.97;5.37;;;;;;;;;;5003780;28;20439;-73
2023/03/23 09:51:22;;;;;;;18.10;5.20;;;;;;;;;;5021144;28;20428;-75
2023/03/23 09:53:50;;;;;;;22.37;4.43;;;;;;;;;;5024891;28;20475;-73
2023/03/23 09:56:22;;;;;;;23.83;4.73;;;;;;;;;;5008035;28;20448;-73
2023/03/23 09:59:12;;;;;;;19.93;3.90;;;;;;;;;;5003956;28;20430;-74
2023/03/23 10:02:00;;;;;;;20.00;4.63;;;;;;;;;;4999883;28;20490;-74
2023/03/23 10:04:39;;;;;;;28.40;4.80;;;;;;;;;;5018833;28;21075;-73
2023/03/23 10:07:16;;;;;;;17.73;4.87;;;;;;;;;;5005646;28;20428;-74
2023/03/23 10:09:44;;;;;;;17.57;3.93;;;;;;;;;;5002112;28;20418;-74
2023/03/23 10:15:30;;;;;;;18.27;4.60;;;;;;;;;;5004155;28;20814;-73
2023/03/23 10:17:59;;;;;;;22.13;5.40;;;;;;;;;;5019334;28;20439;-74
2023/03/23 10:20:33;;;;;;;19.73;5.20;;;;;;;;;;5004910;28;20436;-74
2023/03/23 10:23:14;;;;;;;27.77;4.90;;;;;;;;;;5021606;28;20510;-74
2023/03/23 10:25:49;;;;;;;26.37;5.57;;;;;;;;;;5018995;28;20443;-74
2023/03/23 10:28:41;;;;;;;14.27;3.80;;;;;;;;;;5002126;28;20427;-73
2023/03/23 10:31:09;;;;;;;18.97;4.33;;;;;;;;;;5007587;28;20490;-73
2023/03/23 10:34:00;;;;;;;19.40;5.30;;;;;;;;;;5023620;28;20824;-74
2023/03/23 10:36:31;;;;;;;20.70;4.30;;;;;;;;;;5003586;28;20937;-74
2023/03/23 10:39:11;;;;;;;13.73;4.20;;;;;;;;;;5024380;28;20416;-72
2023/03/23 10:41:52;;;;;;;14.37;3.80;;;;;;;;;;5023937;28;20499;-72
2023/03/23 10:44:25;;;;;;;21.97;4.27;;;;;;;;;;5005071;28;20420;-74
2023/03/23 10:49:47;;;;;;;13.67;3.27;;;;;;;;;;5004553;28;20432;-73
2023/03/23 10:52:22;;;;;;;14.43;3.67;;;;;;;;;;5007409;28;20471;-73
2023/03/23 10:55:08;;;;;;;14.80;3.50;;;;;;;;;;5008997;28;20430;-74
2023/03/23 10:57:34;;;;;;;17.80;4.43;;;;;;;;;;5005715;28;20794;-73
2023/03/23 11:00:05;;;;;;;16.83;4.37;;;;;;;;;;5008113;28;20499;-74
2023/03/23 11:02:34;;;;;;;13.60;4.60;;;;;;;;;;5007312;28;20471;-76
2023/03/23 11:05:01;;;;;;;15.93;4.30;;;;;;;;;;5007947;28;20478;-74
2023/03/23 11:07:29;;;;;;;12.93;4.10;;;;;;;;;;5008905;28;20428;-76
2023/03/23 11:09:55;;;;;;;18.00;3.80;;;;;;;;;;5008186;28;20435;-74
2023/03/23 11:12:22;;;;;;;11.57;3.17;;;;;;;;;;5009452;28;20499;-74
2023/03/23 11:14:51;;;;;;;11.30;3.70;;;;;;;;;;5007731;28;20432;-75
2023/03/23 11:17:24;;;;;;;17.90;5.20;;;;;;;;;;5007715;28;20462;-73
2023/03/23 11:19:50;;;;;;;15.67;4.47;;;;;;;;;;5007461;28;20420;-73
2023/03/23 11:22:22;;;;;;;13.70;4.10;;;;;;;;;;5005567;28;20590;-73
2023/03/23 11:24:52;;;;;;;12.43;3.50;;;;;;;;;;5007675;28;20420;-75
2023/03/23 11:27:18;;;;;;;16.50;4.07;;;;;;;;;;5023843;28;20420;-73
2023/03/23 11:30:03;;;;;;;12.57;3.37;;;;;;;;;;5008382;28;20474;-73
2023/03/23 11:32:30;;;;;;;17.73;4.20;;;;;;;;;;5001666;28;20468;-73
2023/03/23 11:35:08;;;;;;;17.43;4.73;;;;;;;;;;5002793;28;20499;-73
2023/03/23 11:37:33;;;;;;;14.13;3.40;;;;;;;;;;5007008;28;20418;-73
2023/03/23 11:40:00;;;;;;;20.23;4.10;;;;;;;;;;5008284;28;20420;-70
2023/03/23 11:42:37;;;;;;;15.40;3.43;;;;;;;;;;4983679;28;20205;-72
2023/03/23 11:45:24;;;;;;;12.90;3.20;;;;;;;;;;4985392;28;20468;-73
2023/03/23 11:47:55;;;;;;;13.63;3.30;;;;;;;;;;4999423;28;20432;-73
2023/03/23 11:50:23;;;;;;;14.63;3.57;;;;;;;;;;4988581;28;20423;-74
2023/03/23 11:52:56;;;;;;;12.83;3.53;;;;;;;;;;4989480;28;20495;-72
2023/03/23 11:55:22;;;;;;;16.20;3.53;;;;;;;;;;5003184;28;20429;-73
2023/03/23 11:57:47;;;;;;;17.10;4.00;;;;;;;;;;5004373;28;20421;-72
2023/03/23 12:00:14;;;;;;;14.57;3.57;;;;;;;;;;4988291;28;20578;-72
2023/03/23 12:02:46;;;;;;;14.77;3.90;;;;;;;;;;4987506;28;20298;-73
2023/03/23 12:05:31;;;;;;;15.33;2.87;;;;;;;;;;4987342;28;20800;-71
2023/03/23 12:08:00;;;;;;;12.77;3.33;;;;;;;;;;4985937;28;20845;-72
2023/03/23 12:10:29;;;;;;;13.50;3.70;;;;;;;;;;4985102;28;20431;-71
2023/03/23 12:13:13;;;;;;;12.53;3.30;;;;;;;;;;4988486;28;20507;-73
2023/03/23 12:15:50;;;;;;;13.73;3.53;;;;;;;;;;4987333;28;20471;-73
2023/03/23 12:18:28;;;;;;;17.20;3.90;;;;;;;;;;4980045;28;20491;-73
2023/03/23 12:21:10;;;;;;;12.30;2.97;;;;;;;;;;4987037;28;20985;-72
2023/03/23 12:23:54;;;;;;;18.43;3.90;;;;;;;;;;4986428;28;20468;-72
2023/03/23 12:26:28;;;;;;;10.37;2.83;;;;;;;;;;4985096;28;20462;-73
2023/03/23 12:28:53;;;;;;;16.43;3.43;;;;;;;;;;4979279;28;20507;-72
2023/03/23 12:31:22;;;;;;;15.10;3.93;;;;;;;;;;4984393;28;20480;-73
2023/03/23 12:33:56;;;;;;;17.40;3.87;;;;;;;;;;4995830;28;20212;-71
2023/03/23 12:36:42;;;;;;;12.67;3.70;;;;;;;;;;4983293;28;20432;-72
2023/03/23 12:39:26;;;;;;;14.43;2.93;;;;;;;;;;4983001;28;20952;-73
2023/03/23 12:42:03;;;;;;;9.53;2.83;;;;;;;;;;4985864;28;20455;-72
2023/03/23 12:44:35;;;;;;;10.10;2.93;;;;;;;;;;4984151;28;20449;-72
2023/03/23 12:47:04;;;;;;;15.37;3.00;;;;;;;;;;4978954;28;20865;-71
2023/03/23 12:49:32;;;;;;;10.50;2.90;;;;;;;;;;4987090;28;20543;-71
2023/03/23 12:55:00;;;;;;;11.43;2.57;;;;;;;;;;4992680;28;20492;-71
2023/03/23 12:57:31;;;;;;;8.70;2.80;;;;;;;;;;5005096;28;20440;-71
2023/03/23 12:59:59;;;;;;;6.43;2.57;;;;;;;;;;4997396;28;20435;-71
2023/03/23 13:02:25;;;;;;;8.17;2.47;;;;;;;;;;4996567;28;20437;-71
2023/03/23 13:05:11;;;;;;;13.57;2.80;;;;;;;;;;4998885;28;20427;-71
2023/03/23 13:07:41;;;;;;;8.90;2.37;;;;;;;;;;4997375;28;20185;-71
2023/03/23 13:10:19;;;;;;;9.00;2.40;;;;;;;;;;4994513;28;20436;-71
2023/03/23 13:12:45;;;;;;;9.90;3.43;;;;;;;;;;4995014;28;20511;-72
2023/03/23 13:15:18;;;;;;;9.60;2.47;;;;;;;;;;4994324;28;20468;-72
2023/03/23 13:17:59;;;;;;;8.27;2.40;;;;;;;;;;4999489;28;20177;-71
2023/03/23 13:20:34;;;;;;;7.10;2.47;;;;;;;;;;4997084;28;20489;-73
2023/03/23 13:22:59;;;;;;;10.57;2.87;;;;;;;;;;5000875;28;20436;-72
2023/03/23 13:25:45;;;;;;;7.40;2.30;;;;;;;;;;4999344;28;20857;-72
2023/03/23 13:28:22;;;;;;;9.83;2.80;;;;;;;;;;4998443;28;20233;-73
2023/03/23 13:30:59;;;;;;;11.63;3.07;;;;;;;;;;5003228;28;20419;-73
2023/03/23 13:33:25;;;;;;;7.00;2.20;;;;;;;;;;5004401;28;20508;-71
2023/03/23 13:35:51;;;;;;;8.53;2.57;;;;;;;;;;5004765;28;20457;-72
2023/03/23 13:38:21;;;;;;;6.87;2.53;;;;;;;;;;5004437;28;20197;-72
2023/03/23 13:40:47;;;;;;;8.67;2.50;;;;;;;;;;5004259;28;20415;-69
2023/03/23 13:43:12;;;;;;;14.03;3.33;;;;;;;;;;5006335;28;20436;-70
2023/03/23 13:45:47;;;;;;;11.60;2.70;;;;;;;;;;5005051;28;20224;-72
2023/03/23 13:48:13;;;;;;;11.90;3.13;;;;;;;;;;5003744;28;20193;-70
2023/03/23 13:50:56;;;;;;;9.70;2.90;;;;;;;;;;5007292;28;20408;-71
2023/03/23 13:53:24;;;;;;;9.70;2.70;;;;;;;;;;5003551;28;20256;-70
2023/03/23 13:56:10;;;;;;;11.37;2.63;;;;;;;;;;5019654;28;20470;-70
2023/03/23 13:58:44;;;;;;;9.80;2.27;;;;;;;;;;4993195;28;20783;-70
2023/03/23 14:01:32;;;;;;;9.17;3.07;;;;;;;;;;5004898;28;20490;-70
2023/03/23 14:04:00;;;;;;;11.80;3.13;;;;;;;;;;5021014;28;20890;-70
2023/03/23 14:06:26;;;;;;;12.43;2.97;;;;;;;;;;5004113;28;20486;-70
2023/03/23 14:08:53;;;;;;;10.23;2.73;;;;;;;;;;5004728;28;20429;-70
2023/03/23 14:11:23;;;;;;;11.90;2.90;;;;;;;;;;5003675;28;20189;-70
2023/03/23 14:14:13;;;;;;;11.10;3.30;;;;;;;;;;5002349;28;20499;-70
2023/03/23 14:16:40;;;;;;;9.77;2.90;;;;;;;;;;5003060;28;20429;-70
2023/03/23 14:19:25;;;;;;;11.03;3.23;;;;;;;;;;5002152;28;20420;-71
2023/03/23 14:21:57;;;;;;;9.43;2.23;;;;;;;;;;5002083;28;20412;-72
2023/03/23 14:24:27;;;;;;;10.60;3.27;;;;;;;;;;5001600;28;20443;-72
2023/03/23 14:27:00;;;;;;;10.90;2.90;;;;;;;;;;5004213;28;20427;-71
2023/03/23 14:29:26;;;;;;;9.90;3.10;;;;;;;;;;5003821;28;20412;-71
2023/03/23 14:31:55;;;;;;;17.07;3.20;;;;;;;;;;5003489;28;20447;-71
2023/03/23 14:34:21;;;;;;;11.20;3.30;;;;;;;;;;4999579;28;20928;-72
2023/03/23 14:36:46;;;;;;;14.97;3.30;;;;;;;;;;5001603;28;23783;-71
2023/03/23 14:39:19;;;;;;;20.43;4.07;;;;;;;;;;5001481;28;20433;-72
2023/03/23 14:41:45;;;;;;;10.53;3.30;;;;;;;;;;4997434;28;20185;-71
2023/03/23 14:44:13;;;;;;;11.30;3.53;;;;;;;;;;5013079;28;20456;-71
2023/03/23 14:46:38;;;;;;;13.20;3.47;;;;;;;;;;5003153;28;20184;-71
2023/03/23 14:49:04;;;;;;;14.63;4.13;;;;;;;;;;5004927;28;20428;-71
2023/03/23 14:51:30;;;;;;;17.40;4.40;;;;;;;;;;5002953;28;20545;-72
2023/03/23 14:53:57;;;;;;;15.20;4.33;;;;;;;;;;5002127;28;20476;-72
2023/03/23 14:56:25;;;;;;;9.77;2.70;;;;;;;;;;5002805;28;20181;-73
2023/03/23 14:58:51;;;;;;;13.07;3.50;;;;;;;;;;5001970;28;20799;-73